createdAt,value
2023-02-13T00:00:09.010Z,10.57
2023-02-13T00:02:43.406Z,12.07
2023-02-13T00:05:16.460Z,14.05
2023-02-13T00:07:49.315Z,14.35
2023-02-13T00:10:22.477Z,13.82
2023-02-13T00:12:55.350Z,12.73
2023-02-13T00:15:28.701Z,12.70
2023-02-13T00:18:03.092Z,11.90
2023-02-13T00:20:36.065Z,11.93
2023-02-13T00:23:08.942Z,13.20
2023-02-13T00:25:41.868Z,11.75
2023-02-13T00:28:15.117Z,12.50
2023-02-13T00:30:48.163Z,11.30
2023-02-13T00:33:22.899Z,12.48
2023-02-13T00:36:04.199Z,12.50
2023-02-13T00:38:37.649Z,14.35
2023-02-13T00:41:11.457Z,13.70
2023-02-13T00:43:44.685Z,10.73
2023-02-13T00:46:18.380Z,13.32
2023-02-13T00:48:52.721Z,12.98
2023-02-13T00:51:25.695Z,14.38
2023-02-13T00:53:58.698Z,15.20
2023-02-13T00:56:31.625Z,12.05
2023-02-13T00:59:04.571Z,12.07
2023-02-13T01:01:37.592Z,13.57
2023-02-13T01:04:12.201Z,14.02
2023-02-13T01:06:45.127Z,13.32
2023-02-13T01:09:18.068Z,14.77
2023-02-13T01:11:51.491Z,14.05
2023-02-13T01:14:24.508Z,15.05
2023-02-13T01:16:57.545Z,12.27
2023-02-13T01:19:31.959Z,14.20
2023-02-13T01:22:12.547Z,13.38
2023-02-13T01:24:50.222Z,12.38
2023-02-13T01:27:23.280Z,12.38
2023-02-13T01:30:00.813Z,13.10
2023-02-13T01:32:33.703Z,13.82
2023-02-13T01:35:09.745Z,12.70
2023-02-13T01:37:44.203Z,12.75
2023-02-13T01:40:17.700Z,14.32
2023-02-13T01:42:50.939Z,12.50
2023-02-13T01:45:31.432Z,13.70
2023-02-13T01:48:08.599Z,12.57
2023-02-13T01:50:47.653Z,13.13
2023-02-13T01:53:40.854Z,12.80
2023-02-13T01:56:21.986Z,12.90
2023-02-13T01:58:59.442Z,12.70
2023-02-13T02:01:33.739Z,13.73
2023-02-13T02:04:11.595Z,11.95
2023-02-13T02:06:49.256Z,13.93
2023-02-13T02:09:29.542Z,14.43
2023-02-13T02:12:07.093Z,12.57
2023-02-13T02:14:41.725Z,14.48
2023-02-13T02:17:15.917Z,13.73
2023-02-13T02:19:55.217Z,13.57
2023-02-13T02:23:22.405Z,12.90
2023-02-13T02:26:34.119Z,12.73
2023-02-13T02:29:42.608Z,11.20
2023-02-13T02:32:45.541Z,12.20
2023-02-13T02:35:29.494Z,12.73
2023-02-13T02:38:18.123Z,13.05
2023-02-13T02:40:59.633Z,13.52
2023-02-13T02:43:46.924Z,11.82
2023-02-13T02:46:28.315Z,12.68
2023-02-13T02:49:24.653Z,13.18
2023-02-13T02:52:06.188Z,13.68
2023-02-13T02:55:03.780Z,16.15
2023-02-13T02:58:01.535Z,17.63
2023-02-13T03:00:52.182Z,19.08
2023-02-13T03:03:44.495Z,19.02
2023-02-13T03:06:26.032Z,20.70
2023-02-13T03:09:20.676Z,22.85
2023-02-13T03:12:13.906Z,20.55
2023-02-13T03:14:47.192Z,21.10
2023-02-13T03:17:38.615Z,21.58
2023-02-13T03:20:38.740Z,22.33
2023-02-13T03:23:41.334Z,23.60
2023-02-13T03:26:50.372Z,23.08
2023-02-13T03:29:53.655Z,23.63
2023-02-13T03:32:38.566Z,24.55
2023-02-13T03:35:42.709Z,23.25
2023-02-13T03:38:22.153Z,26.05
2023-02-13T03:41:22.041Z,24.85
2023-02-13T03:44:10.231Z,23.88
2023-02-13T03:46:48.973Z,24.90
2023-02-13T03:49:42.531Z,22.13
2023-02-13T03:52:23.590Z,21.80
2023-02-13T03:55:23.113Z,22.70
2023-02-13T03:58:17.068Z,22.42
2023-02-13T04:00:53.551Z,23.85
2023-02-13T04:03:32.428Z,25.27
2023-02-13T04:06:11.090Z,28.58
2023-02-13T04:08:44.676Z,24.73
2023-02-13T04:11:25.856Z,24.80
2023-02-13T04:14:01.330Z,24.27
2023-02-13T04:16:42.227Z,22.55
2023-02-13T04:19:18.730Z,23.05
2023-02-13T04:21:58.173Z,24.83
2023-02-13T04:24:31.580Z,24.50
2023-02-13T04:27:06.078Z,26.05
2023-02-13T04:29:38.938Z,25.70
2023-02-13T04:32:12.902Z,25.15
2023-02-13T04:34:45.771Z,24.13
2023-02-13T04:37:18.672Z,25.25
2023-02-13T04:39:55.122Z,25.50
2023-02-13T04:42:29.882Z,25.58
2023-02-13T04:45:05.935Z,23.95
2023-02-13T04:47:38.958Z,24.67
2023-02-13T04:50:12.532Z,25.02
2023-02-13T04:52:45.443Z,26.15
2023-02-13T04:55:18.399Z,27.65
2023-02-13T04:57:54.991Z,26.75
2023-02-13T05:00:29.846Z,28.80
2023-02-13T05:03:07.218Z,28.00
2023-02-13T05:05:41.242Z,27.85
2023-02-13T05:08:14.141Z,25.80
2023-02-13T05:10:47.081Z,27.10
2023-02-13T05:13:23.239Z,24.30
2023-02-13T05:15:56.245Z,27.85
2023-02-13T05:18:29.438Z,29.75
2023-02-13T05:21:19.873Z,25.83
2023-02-13T05:23:52.835Z,25.98
2023-02-13T05:26:25.719Z,28.63
2023-02-13T05:29:26.047Z,27.33
2023-02-13T05:31:59.932Z,28.25
2023-02-13T05:34:33.077Z,27.52
2023-02-13T05:37:05.957Z,28.27
2023-02-13T05:39:41.759Z,29.85
2023-02-13T05:42:14.670Z,29.90
2023-02-13T05:44:49.404Z,25.73
2023-02-13T05:47:22.781Z,26.95
2023-02-13T05:49:55.914Z,29.48
2023-02-13T05:52:30.972Z,27.83
2023-02-13T05:55:03.888Z,27.08
2023-02-13T05:57:36.734Z,27.55
2023-02-13T06:00:14.924Z,28.55
2023-02-13T06:02:50.283Z,28.33
2023-02-13T06:05:23.190Z,31.40
2023-02-13T06:07:56.057Z,31.88
2023-02-13T06:10:28.990Z,30.25
2023-02-13T06:13:01.887Z,32.15
2023-02-13T06:15:36.343Z,28.67
2023-02-13T06:18:09.816Z,31.85
2023-02-13T06:20:42.706Z,30.98
2023-02-13T06:23:15.790Z,28.70
2023-02-13T06:25:48.798Z,31.25
2023-02-13T06:28:21.711Z,27.80
2023-02-13T06:30:56.598Z,29.65
2023-02-13T06:33:29.807Z,28.73
2023-02-13T06:36:02.690Z,27.42
2023-02-13T06:38:35.590Z,27.13
2023-02-13T06:41:08.556Z,28.30
2023-02-13T06:43:41.555Z,28.88
2023-02-13T06:46:15.890Z,27.00
2023-02-13T06:48:48.795Z,29.13
2023-02-13T06:51:21.753Z,29.00
2023-02-13T06:53:54.700Z,28.95
2023-02-13T06:56:27.924Z,30.45
2023-02-13T06:59:00.814Z,29.60
2023-02-13T07:01:35.206Z,29.92
2023-02-13T07:04:08.088Z,29.63
2023-02-13T07:06:40.986Z,31.02
2023-02-13T07:09:14.294Z,31.38
2023-02-13T07:11:47.313Z,28.92
2023-02-13T07:14:20.324Z,31.20
2023-02-13T07:16:54.691Z,32.40
2023-02-13T07:19:27.617Z,31.42
2023-02-13T07:22:00.640Z,33.97
2023-02-13T07:24:35.441Z,28.90
2023-02-13T07:27:08.436Z,30.38
2023-02-13T07:29:41.330Z,28.95
2023-02-13T07:32:16.440Z,27.77
2023-02-13T07:35:00.845Z,28.95
2023-02-13T07:37:34.622Z,28.83
2023-02-13T07:40:09.074Z,29.08
2023-02-13T07:42:41.963Z,30.58
2023-02-13T07:45:23.445Z,28.10
2023-02-13T07:47:57.984Z,28.20
2023-02-13T07:50:31.053Z,28.02
2023-02-13T07:53:04.178Z,27.15
2023-02-13T07:55:39.392Z,28.48
2023-02-13T07:58:12.556Z,26.52
2023-02-13T08:00:45.472Z,28.38
2023-02-13T08:03:19.780Z,27.73
2023-02-13T08:05:52.736Z,29.23
2023-02-13T08:08:25.617Z,30.42
2023-02-13T08:11:21.646Z,26.98
2023-02-13T08:13:54.503Z,28.60
2023-02-13T08:16:27.461Z,29.92
2023-02-13T08:19:01.842Z,27.55
2023-02-13T08:21:35.343Z,27.50
2023-02-13T08:24:08.705Z,26.48
2023-02-13T08:26:41.938Z,30.52
2023-02-13T08:29:14.815Z,29.75
2023-02-13T08:31:47.831Z,29.90
2023-02-13T08:34:22.286Z,28.42
2023-02-13T08:36:55.255Z,28.48
2023-02-13T08:39:28.203Z,25.65
2023-02-13T08:42:01.246Z,24.55
2023-02-13T08:44:34.222Z,27.08
2023-02-13T08:47:07.248Z,25.10
2023-02-13T08:49:41.642Z,27.40
2023-02-13T08:52:14.600Z,26.55
2023-02-13T08:54:47.467Z,26.65
2023-02-13T08:57:20.462Z,24.40
2023-02-13T08:59:53.347Z,28.27
2023-02-13T09:02:26.281Z,23.35
2023-02-13T09:05:00.519Z,26.25
2023-02-13T09:07:33.425Z,23.67
2023-02-13T09:10:07.573Z,24.85
2023-02-13T09:12:40.552Z,25.63
2023-02-13T09:15:13.484Z,24.77
2023-02-13T09:17:46.522Z,26.73
2023-02-13T09:20:20.974Z,26.45
2023-02-13T09:22:53.959Z,26.00
2023-02-13T09:25:27.523Z,27.55
2023-02-13T09:28:01.066Z,26.75
2023-02-13T09:30:33.974Z,27.30
2023-02-13T09:33:11.967Z,26.33
2023-02-13T09:35:46.332Z,28.35
2023-02-13T09:38:19.440Z,27.08
2023-02-13T09:40:56.154Z,26.00
2023-02-13T09:43:32.013Z,26.48
2023-02-13T09:46:14.384Z,29.88
2023-02-13T09:48:51.065Z,26.10
2023-02-13T09:51:29.536Z,27.02
2023-02-13T09:54:05.980Z,28.95
2023-02-13T09:56:50.741Z,25.83
2023-02-13T09:59:36.697Z,27.30
2023-02-13T10:02:42.565Z,26.15
2023-02-13T10:05:29.547Z,27.10
2023-02-13T10:08:12.273Z,27.17
2023-02-13T10:10:54.496Z,29.20
2023-02-13T10:13:43.258Z,25.77
2023-02-13T10:16:20.764Z,25.92
2023-02-13T10:18:58.787Z,28.60
2023-02-13T10:21:37.062Z,26.92
2023-02-13T10:24:18.964Z,25.35
2023-02-13T10:29:49.663Z,25.05
2023-02-13T10:32:30.275Z,27.15
2023-02-13T10:35:05.266Z,29.05
2023-02-13T10:37:39.531Z,28.67
2023-02-13T10:40:15.674Z,23.90
2023-02-13T10:43:00.569Z,26.17
2023-02-13T10:45:50.716Z,26.40
2023-02-13T10:48:50.021Z,23.48
2023-02-13T10:51:31.438Z,26.33
2023-02-13T10:54:24.926Z,24.60
2023-02-13T10:57:08.911Z,28.52
2023-02-13T10:59:56.394Z,26.55
2023-02-13T11:02:31.829Z,25.63
2023-02-13T11:05:16.755Z,23.85
2023-02-13T11:07:50.056Z,26.33
2023-02-13T11:10:25.635Z,25.00
2023-02-13T11:13:19.345Z,26.88
2023-02-13T11:16:04.767Z,26.98
2023-02-13T11:18:41.709Z,30.55
2023-02-13T11:21:21.416Z,29.08
2023-02-13T11:23:56.443Z,28.17
2023-02-13T11:26:34.704Z,28.67
2023-02-13T11:29:21.791Z,32.40
2023-02-13T11:32:06.754Z,34.38
2023-02-13T11:34:39.972Z,34.10
2023-02-13T11:37:19.893Z,31.75
2023-02-13T11:39:54.786Z,32.22
2023-02-13T11:42:31.497Z,35.97
2023-02-13T11:45:08.698Z,31.65
2023-02-13T11:47:43.986Z,30.77
2023-02-13T11:50:27.134Z,31.90
2023-02-13T11:53:03.324Z,32.67
2023-02-13T11:55:39.121Z,32.50
2023-02-13T11:58:26.125Z,34.38
2023-02-13T12:01:38.196Z,35.25
2023-02-13T12:04:16.724Z,29.77
2023-02-13T12:07:01.445Z,29.17
2023-02-13T12:09:34.343Z,30.23
2023-02-13T12:12:08.140Z,31.77
2023-02-13T12:14:44.531Z,33.13
2023-02-13T12:17:31.278Z,35.30
2023-02-13T12:20:05.234Z,33.13
2023-02-13T12:22:48.467Z,33.35
2023-02-13T12:25:41.675Z,35.47
2023-02-13T12:28:17.301Z,34.17
2023-02-13T12:31:24.847Z,30.48
2023-02-13T12:34:22.529Z,33.80
2023-02-13T12:37:07.843Z,33.33
2023-02-13T12:39:49.394Z,34.20
2023-02-13T12:42:34.978Z,34.25
2023-02-13T12:45:22.775Z,34.33
2023-02-13T12:48:16.789Z,32.70
2023-02-13T12:51:00.954Z,34.25
2023-02-13T12:53:48.746Z,32.92
2023-02-13T12:56:32.766Z,33.90
2023-02-13T12:59:15.417Z,33.33
2023-02-13T13:02:17.007Z,32.53
2023-02-13T13:05:03.355Z,35.40
2023-02-13T13:07:55.381Z,33.50
2023-02-13T13:13:30.294Z,31.88
2023-02-13T13:16:11.389Z,35.70
2023-02-13T13:18:54.781Z,36.45
2023-02-13T13:21:36.603Z,31.58
2023-02-13T13:26:52.080Z,33.15
2023-02-13T13:29:31.051Z,36.00
2023-02-13T13:32:08.781Z,35.45
2023-02-13T13:34:41.698Z,33.97
2023-02-13T13:37:27.966Z,34.60
2023-02-13T13:40:11.372Z,35.55
2023-02-13T13:42:53.294Z,32.63
2023-02-13T13:48:21.224Z,31.75
2023-02-13T13:50:55.093Z,34.00
2023-02-13T13:53:28.059Z,36.50
2023-02-13T13:56:09.375Z,35.65
2023-02-13T13:58:44.973Z,31.42
2023-02-13T14:01:19.821Z,30.05
2023-02-13T14:03:55.275Z,50.30
2023-02-13T14:06:49.291Z,33.08
2023-02-13T14:09:40.146Z,34.70
2023-02-13T14:12:47.689Z,35.80
2023-02-13T14:15:52.220Z,30.58
2023-02-13T14:18:27.910Z,28.83
2023-02-13T14:21:03.517Z,31.48
2023-02-13T14:23:49.781Z,33.03
2023-02-13T14:26:41.736Z,28.30
2023-02-13T14:32:20.442Z,38.92
2023-02-13T14:37:36.751Z,30.52
2023-02-13T14:40:29.130Z,29.58
2023-02-13T14:43:20.678Z,35.35
2023-02-13T14:45:58.257Z,31.65
2023-02-13T14:48:43.305Z,32.70
2023-02-13T14:51:28.567Z,29.65
2023-02-13T14:54:07.079Z,30.90
2023-02-13T14:56:40.622Z,29.52
2023-02-13T14:59:18.269Z,30.73
2023-02-13T15:01:58.970Z,33.35
2023-02-13T15:04:36.813Z,34.05
2023-02-13T15:07:17.276Z,36.15
2023-02-13T15:09:53.952Z,31.40
2023-02-13T15:12:29.346Z,33.17
2023-02-13T15:15:03.190Z,36.17
2023-02-13T15:17:40.235Z,32.15
2023-02-13T15:20:25.024Z,32.60
2023-02-13T15:22:58.776Z,32.08
2023-02-13T15:25:35.677Z,34.65
2023-02-13T15:28:16.469Z,32.13
2023-02-13T15:30:57.079Z,28.90
2023-02-13T15:33:38.324Z,32.70
2023-02-13T15:36:20.131Z,34.28
2023-02-13T15:39:00.351Z,33.92
2023-02-13T15:41:37.044Z,31.92
2023-02-13T15:44:18.940Z,33.20
2023-02-13T15:49:28.366Z,33.25
2023-02-13T15:52:06.360Z,30.55
2023-02-13T15:54:50.381Z,31.35
2023-02-13T15:57:24.873Z,34.50
2023-02-13T15:59:59.846Z,33.95
2023-02-13T16:02:41.448Z,31.52
2023-02-13T16:05:26.566Z,29.70
2023-02-13T16:08:32.356Z,31.55
2023-02-13T16:11:22.564Z,30.13
2023-02-13T16:14:13.954Z,32.42
2023-02-13T16:16:53.908Z,28.65
2023-02-13T16:19:31.862Z,32.33
2023-02-13T16:22:17.414Z,30.52
2023-02-13T16:24:53.293Z,33.17
2023-02-13T16:27:28.931Z,32.05
2023-02-13T16:30:22.716Z,32.10
2023-02-13T16:33:12.216Z,32.72
2023-02-13T16:35:48.687Z,32.83
2023-02-13T16:38:34.360Z,30.02
2023-02-13T16:41:28.763Z,30.00
2023-02-13T16:44:02.600Z,29.35
2023-02-13T16:46:37.518Z,33.17
2023-02-13T16:49:32.798Z,30.35
2023-02-13T16:52:12.658Z,29.48
2023-02-13T16:55:04.419Z,30.92
2023-02-13T16:57:37.365Z,30.75
2023-02-13T17:00:20.553Z,30.02
2023-02-13T17:02:53.447Z,33.85
2023-02-13T17:05:28.934Z,32.08
2023-02-13T17:08:01.858Z,31.35
2023-02-13T17:10:37.858Z,33.17
2023-02-13T17:13:17.622Z,32.45
2023-02-13T17:15:51.879Z,34.03
2023-02-13T17:18:24.869Z,31.38
2023-02-13T17:20:58.043Z,32.10
2023-02-13T17:23:31.218Z,31.88
2023-02-13T17:26:05.866Z,34.28
2023-02-13T17:28:38.807Z,31.73
2023-02-13T17:31:14.059Z,33.53
2023-02-13T17:33:47.058Z,34.13
2023-02-13T17:36:19.941Z,33.97
2023-02-13T17:38:52.823Z,33.97
2023-02-13T17:41:27.532Z,32.95
2023-02-13T17:44:00.409Z,34.97
2023-02-13T17:46:34.434Z,30.65
2023-02-13T17:49:07.526Z,31.55
2023-02-13T17:51:43.837Z,28.85
2023-02-13T17:54:17.924Z,27.80
2023-02-13T17:56:52.222Z,28.85
2023-02-13T17:59:25.706Z,29.08
2023-02-13T18:01:58.718Z,29.70
2023-02-13T18:04:31.779Z,31.40
2023-02-13T18:07:04.770Z,30.50
2023-02-13T18:09:37.860Z,31.05
2023-02-13T18:12:15.329Z,29.92
2023-02-13T18:14:48.989Z,31.52
2023-02-13T18:17:22.356Z,27.08
2023-02-13T18:19:58.052Z,28.42
2023-02-13T18:22:30.976Z,29.23
2023-02-13T18:25:04.603Z,32.20
2023-02-13T18:27:38.873Z,27.02
2023-02-13T18:30:14.376Z,24.27
2023-02-13T18:32:51.538Z,29.75
2023-02-13T18:35:24.937Z,25.27
2023-02-13T18:37:57.795Z,24.30
2023-02-13T18:40:30.836Z,23.27
2023-02-13T18:43:05.240Z,28.33
2023-02-13T18:45:38.827Z,26.77
2023-02-13T18:48:11.705Z,29.08
2023-02-13T18:50:44.836Z,35.70
2023-02-13T18:53:17.735Z,33.28
2023-02-13T18:55:50.737Z,40.85
2023-02-13T18:58:25.548Z,38.95
2023-02-13T19:00:58.757Z,30.80
2023-02-13T19:03:32.097Z,30.65
2023-02-13T19:06:08.333Z,31.38
2023-02-13T19:08:41.450Z,28.50
2023-02-13T19:11:16.422Z,27.30
2023-02-13T19:13:54.703Z,27.08
2023-02-13T19:16:29.630Z,25.60
2023-02-13T19:19:04.883Z,27.63
2023-02-13T19:21:39.539Z,25.48
2023-02-13T19:24:15.429Z,26.98
2023-02-13T19:26:48.510Z,25.15
2023-02-13T19:29:22.834Z,26.52
2023-02-13T19:31:55.991Z,26.90
2023-02-13T19:34:28.924Z,27.73
2023-02-13T19:37:01.864Z,28.75
2023-02-13T19:39:34.880Z,26.45
2023-02-13T19:42:07.839Z,28.88
2023-02-13T19:44:42.201Z,27.30
2023-02-13T19:47:15.302Z,29.67
2023-02-13T19:49:49.969Z,31.00
2023-02-13T19:52:24.457Z,27.83
2023-02-13T19:54:57.387Z,24.70
2023-02-13T19:57:30.311Z,27.33
2023-02-13T20:00:05.181Z,28.02
2023-02-13T20:02:38.376Z,29.83
2023-02-13T20:05:11.372Z,26.25
2023-02-13T20:07:44.331Z,29.52
2023-02-13T20:10:17.221Z,28.60
2023-02-13T20:12:53.789Z,28.70
2023-02-13T20:15:28.054Z,29.15
2023-02-13T20:18:01.084Z,29.48
2023-02-13T20:20:33.942Z,26.50
2023-02-13T20:23:07.166Z,28.85
2023-02-13T20:25:40.664Z,26.33
2023-02-13T20:28:13.668Z,30.33
2023-02-13T20:30:48.103Z,26.80
2023-02-13T20:33:21.067Z,29.63
2023-02-13T20:35:53.944Z,29.52
2023-02-13T20:38:26.909Z,26.08
2023-02-13T20:41:01.749Z,26.60
2023-02-13T20:43:35.827Z,27.55
2023-02-13T20:46:11.017Z,26.80
2023-02-13T20:48:45.679Z,25.95
2023-02-13T20:51:20.088Z,26.02
2023-02-13T20:53:53.026Z,26.73
2023-02-13T20:56:28.280Z,27.77
2023-02-13T20:59:02.659Z,29.75
2023-02-13T21:01:41.327Z,26.80
2023-02-13T21:04:19.104Z,28.52
2023-02-13T21:06:52.119Z,27.88
2023-02-13T21:09:25.866Z,27.92
2023-02-13T21:11:58.777Z,27.05
2023-02-13T21:14:31.817Z,27.67
2023-02-13T21:17:06.423Z,28.38
2023-02-13T21:19:39.880Z,26.55
2023-02-13T21:22:12.852Z,25.90
2023-02-13T21:24:45.733Z,27.67
2023-02-13T21:27:18.748Z,28.23
2023-02-13T21:29:51.779Z,29.50
2023-02-13T21:32:26.546Z,29.75
2023-02-13T21:34:59.528Z,29.33
2023-02-13T21:37:32.601Z,29.20
2023-02-13T21:40:06.377Z,28.48
2023-02-13T21:42:39.299Z,31.25
2023-02-13T21:45:12.636Z,32.70
2023-02-13T21:47:46.958Z,27.83
2023-02-13T21:50:22.265Z,30.50
2023-02-13T21:52:55.143Z,32.83
2023-02-13T21:55:34.041Z,30.55
2023-02-13T21:58:06.881Z,30.15
2023-02-13T22:00:39.770Z,35.70
2023-02-13T22:03:14.075Z,32.10
2023-02-13T22:05:47.857Z,36.65
2023-02-13T22:08:20.802Z,35.35
2023-02-13T22:10:54.914Z,33.63
2023-02-13T22:13:28.888Z,34.42
2023-02-13T22:16:02.263Z,39.85
2023-02-13T22:18:38.557Z,31.40
2023-02-13T22:21:13.661Z,37.05
2023-02-13T22:23:47.653Z,30.25
2023-02-13T22:26:22.573Z,32.05
2023-02-13T22:28:59.637Z,30.42
2023-02-13T22:31:33.260Z,33.05
2023-02-13T22:34:08.073Z,31.10
2023-02-13T22:36:41.366Z,30.88
2023-02-13T22:39:14.206Z,36.95
2023-02-13T22:41:47.686Z,32.08
2023-02-13T22:44:20.607Z,34.95
2023-02-13T22:46:53.581Z,34.60
2023-02-13T22:49:28.066Z,32.95
2023-02-13T22:52:01.085Z,33.45
2023-02-13T22:54:34.114Z,30.60
2023-02-13T22:57:07.342Z,31.50
2023-02-13T22:59:40.435Z,32.67
2023-02-13T23:02:13.412Z,32.72
2023-02-13T23:04:49.331Z,38.65
2023-02-13T23:07:22.552Z,42.92
2023-02-13T23:09:55.509Z,44.20
2023-02-13T23:12:36.203Z,39.47
2023-02-13T23:15:14.019Z,39.92
2023-02-13T23:18:04.553Z,37.15
2023-02-13T23:20:39.074Z,38.38
2023-02-13T23:23:12.641Z,40.63
2023-02-13T23:25:45.547Z,35.42
2023-02-13T23:28:18.575Z,36.40
2023-02-13T23:30:51.516Z,40.15
2023-02-13T23:33:24.492Z,39.63
2023-02-13T23:35:58.810Z,37.00
2023-02-13T23:38:31.824Z,34.28
2023-02-13T23:41:08.758Z,36.13
2023-02-13T23:43:41.725Z,34.92
2023-02-13T23:46:14.609Z,32.28
2023-02-13T23:48:47.485Z,30.98
2023-02-13T23:51:23.140Z,28.65
2023-02-13T23:53:57.390Z,28.73
2023-02-13T23:56:30.283Z,32.50
2023-02-13T23:59:03.190Z,24.38
